sensor_id;sensor_type;location;lat;lon;timestamp;temperature;humidity
37896;DHT22;23733;53.254;10.430;2023-05-10T02:42:33;16.00;99.90
37896;DHT22;23733;53.254;10.430;2023-05-10T02:45:15;13.50;99.90
37896;DHT22;23733;53.254;10.430;2023-05-10T02:47:55;13.40;99.90
37896;DHT22;23733;53.254;10.430;2023-05-10T02:50:25;13.40;99.90
37896;DHT22;23733;53.254;10.430;2023-05-10T02:52:54;13.20;99.90
37896;DHT22;23733;53.254;10.430;2023-05-10T02:57:56;13.20;99.90
37896;DHT22;23733;53.254;10.430;2023-05-10T03:00:24;13.20;99.90
37896;DHT22;23733;53.254;10.430;2023-05-10T03:02:51;13.20;99.90
37896;DHT22;23733;53.254;10.430;2023-05-10T03:05:20;13.10;99.90
37896;DHT22;23733;53.254;10.430;2023-05-10T03:07:46;13.10;99.90
37896;DHT22;23733;53.254;10.430;2023-05-10T03:10:19;13.10;99.90
37896;DHT22;23733;53.254;10.430;2023-05-10T03:18:56;13.00;99.90
37896;DHT22;23733;53.254;10.430;2023-05-10T03:21:30;13.00;99.90
37896;DHT22;23733;53.254;10.430;2023-05-10T03:24:10;13.00;99.90
37896;DHT22;23733;53.254;10.430;2023-05-10T03:26:38;13.00;99.90
37896;DHT22;23733;53.254;10.430;2023-05-10T03:29:06;12.90;99.90
37896;DHT22;23733;53.254;10.430;2023-05-10T03:31:42;13.00;99.90
37896;DHT22;23733;53.254;10.430;2023-05-10T03:34:11;13.00;99.90
37896;DHT22;23733;53.254;10.430;2023-05-10T03:36:45;12.90;99.90
37896;DHT22;23733;53.254;10.430;2023-05-10T03:39:14;12.90;99.90
37896;DHT22;23733;53.254;10.430;2023-05-10T03:41:53;13.00;99.90
37896;DHT22;23733;53.254;10.430;2023-05-10T03:44:25;12.90;99.90
37896;DHT22;23733;53.254;10.430;2023-05-10T03:46:54;12.90;99.90
37896;DHT22;23733;53.254;10.430;2023-05-10T03:49:31;12.90;99.90
37896;DHT22;23733;53.254;10.430;2023-05-10T03:52:00;12.90;99.90
37896;DHT22;23733;53.254;10.430;2023-05-10T03:54:26;12.80;99.90
37896;DHT22;23733;53.254;10.430;2023-05-10T03:56:52;12.80;99.90
37896;DHT22;23733;53.254;10.430;2023-05-10T04:03:07;12.80;99.90
37896;DHT22;23733;53.254;10.430;2023-05-10T04:05:41;12.80;99.90
37896;DHT22;23733;53.254;10.430;2023-05-10T04:08:10;12.80;99.90
37896;DHT22;23733;53.254;10.430;2023-05-10T04:10:42;12.80;99.90
37896;DHT22;23733;53.254;10.430;2023-05-10T04:13:44;12.80;99.90
37896;DHT22;23733;53.254;10.430;2023-05-10T04:16:10;12.80;99.90
37896;DHT22;23733;53.254;10.430;2023-05-10T04:18:39;12.70;99.90
37896;DHT22;23733;53.254;10.430;2023-05-10T04:21:12;12.80;99.90
37896;DHT22;23733;53.254;10.430;2023-05-10T04:26:31;12.80;99.90
37896;DHT22;23733;53.254;10.430;2023-05-10T04:29:02;12.80;99.90
37896;DHT22;23733;53.254;10.430;2023-05-10T04:31:34;12.70;99.90
37896;DHT22;23733;53.254;10.430;2023-05-10T04:34:01;12.70;99.90
37896;DHT22;23733;53.254;10.430;2023-05-10T04:36:30;12.70;99.90
37896;DHT22;23733;53.254;10.430;2023-05-10T04:38:59;12.80;99.90
37896;DHT22;23733;53.254;10.430;2023-05-10T04:41:35;12.70;99.90
37896;DHT22;23733;53.254;10.430;2023-05-10T04:44:21;12.70;99.90
37896;DHT22;23733;53.254;10.430;2023-05-10T04:47:13;12.70;99.90
37896;DHT22;23733;53.254;10.430;2023-05-10T04:49:56;12.70;99.90
37896;DHT22;23733;53.254;10.430;2023-05-10T04:52:43;12.70;99.90
37896;DHT22;23733;53.254;10.430;2023-05-10T04:55:15;12.70;99.90
37896;DHT22;23733;53.254;10.430;2023-05-10T04:57:56;12.80;99.90
37896;DHT22;23733;53.254;10.430;2023-05-10T05:00:45;12.80;99.90
37896;DHT22;23733;53.254;10.430;2023-05-10T05:05:46;12.90;99.90
37896;DHT22;23733;53.254;10.430;2023-05-10T05:08:12;12.90;99.90
37896;DHT22;23733;53.254;10.430;2023-05-10T05:10:38;13.00;99.90
37896;DHT22;23733;53.254;10.430;2023-05-10T05:13:04;13.10;99.90
37896;DHT22;23733;53.254;10.430;2023-05-10T05:22:50;13.20;99.90
37896;DHT22;23733;53.254;10.430;2023-05-10T05:25:16;13.50;99.90
37896;DHT22;23733;53.254;10.430;2023-05-10T05:27:42;13.60;99.90
37896;DHT22;23733;53.254;10.430;2023-05-10T05:30:08;13.60;99.90
37896;DHT22;23733;53.254;10.430;2023-05-10T05:32:34;13.60;99.90
37896;DHT22;23733;53.254;10.430;2023-05-10T05:35:00;13.60;99.90
37896;DHT22;23733;53.254;10.430;2023-05-10T05:37:26;13.70;99.90
37896;DHT22;23733;53.254;10.430;2023-05-10T05:39:52;13.70;99.90
37896;DHT22;23733;53.254;10.430;2023-05-10T05:42:20;13.60;99.90
37896;DHT22;23733;53.254;10.430;2023-05-10T05:44:46;13.70;99.90
37896;DHT22;23733;53.254;10.430;2023-05-10T05:47:12;13.70;99.90
37896;DHT22;23733;53.254;10.430;2023-05-10T05:49:38;13.80;99.90
37896;DHT22;23733;53.254;10.430;2023-05-10T05:52:05;13.70;99.90
37896;DHT22;23733;53.254;10.430;2023-05-10T05:54:31;13.80;99.90
37896;DHT22;23733;53.254;10.430;2023-05-10T05:56:58;13.90;99.90
37896;DHT22;23733;53.254;10.430;2023-05-10T05:59:24;14.00;99.90
37896;DHT22;23733;53.254;10.430;2023-05-10T06:01:50;14.00;99.90
37896;DHT22;23733;53.254;10.430;2023-05-10T06:23:52;14.10;99.90
37896;DHT22;23733;53.254;10.430;2023-05-10T06:26:18;14.40;99.90
37896;DHT22;23733;53.254;10.430;2023-05-10T06:28:44;14.40;99.90
37896;DHT22;23733;53.254;10.430;2023-05-10T06:40:56;14.60;99.90
37896;DHT22;23733;53.254;10.430;2023-05-10T06:43:23;14.90;99.90
37896;DHT22;23733;53.254;10.430;2023-05-10T06:45:50;14.80;99.90
37896;DHT22;23733;53.254;10.430;2023-05-10T06:48:16;14.80;99.90
37896;DHT22;23733;53.254;10.430;2023-05-10T06:50:42;14.80;99.90
37896;DHT22;23733;53.254;10.430;2023-05-10T06:53:08;14.90;99.90
37896;DHT22;23733;53.254;10.430;2023-05-10T06:55:34;14.90;99.90
37896;DHT22;23733;53.254;10.430;2023-05-10T06:58:01;14.90;99.90
37896;DHT22;23733;53.254;10.430;2023-05-10T07:00:27;15.00;99.90
37896;DHT22;23733;53.254;10.430;2023-05-10T07:02:53;15.00;99.90
37896;DHT22;23733;53.254;10.430;2023-05-10T07:05:19;15.00;99.90
37896;DHT22;23733;53.254;10.430;2023-05-10T07:07:45;15.10;99.90
37896;DHT22;23733;53.254;10.430;2023-05-10T07:10:11;15.20;99.90
37896;DHT22;23733;53.254;10.430;2023-05-10T07:12:37;15.20;99.90
37896;DHT22;23733;53.254;10.430;2023-05-10T07:15:04;15.20;99.90
37896;DHT22;23733;53.254;10.430;2023-05-10T07:17:30;15.20;99.90
37896;DHT22;23733;53.254;10.430;2023-05-10T07:19:56;15.20;99.90
37896;DHT22;23733;53.254;10.430;2023-05-10T07:22:22;15.20;99.90
37896;DHT22;23733;53.254;10.430;2023-05-10T07:24:48;15.30;99.90
37896;DHT22;23733;53.254;10.430;2023-05-10T07:27:14;15.40;99.90
37896;DHT22;23733;53.254;10.430;2023-05-10T07:29:40;15.50;99.90
37896;DHT22;23733;53.254;10.430;2023-05-10T07:32:06;15.60;99.90
37896;DHT22;23733;53.254;10.430;2023-05-10T07:34:32;15.60;99.90
37896;DHT22;23733;53.254;10.430;2023-05-10T07:36:59;15.60;99.90
37896;DHT22;23733;53.254;10.430;2023-05-10T07:39:26;15.70;99.90
37896;DHT22;23733;53.254;10.430;2023-05-10T07:41:52;15.80;99.90
37896;DHT22;23733;53.254;10.430;2023-05-10T07:44:18;15.80;99.90
37896;DHT22;23733;53.254;10.430;2023-05-10T07:46:46;15.90;99.90
37896;DHT22;23733;53.254;10.430;2023-05-10T07:49:13;15.80;99.90
37896;DHT22;23733;53.254;10.430;2023-05-10T07:51:39;15.90;99.90
37896;DHT22;23733;53.254;10.430;2023-05-10T07:54:05;15.90;99.90
37896;DHT22;23733;53.254;10.430;2023-05-10T07:56:32;15.90;99.90
37896;DHT22;23733;53.254;10.430;2023-05-10T07:58:59;15.90;99.90
37896;DHT22;23733;53.254;10.430;2023-05-10T08:03:52;16.00;99.90
37896;DHT22;23733;53.254;10.430;2023-05-10T08:06:19;16.10;99.90
37896;DHT22;23733;53.254;10.430;2023-05-10T08:08:46;16.20;99.90
37896;DHT22;23733;53.254;10.430;2023-05-10T08:11:16;16.20;99.90
37896;DHT22;23733;53.254;10.430;2023-05-10T08:13:42;16.20;99.90
37896;DHT22;23733;53.254;10.430;2023-05-10T08:16:08;16.30;99.90
37896;DHT22;23733;53.254;10.430;2023-05-10T08:18:34;16.30;99.90
37896;DHT22;23733;53.254;10.430;2023-05-10T08:21:00;16.40;99.90
37896;DHT22;23733;53.254;10.430;2023-05-10T08:23:26;16.40;99.90
37896;DHT22;23733;53.254;10.430;2023-05-10T08:25:52;16.40;99.90
37896;DHT22;23733;53.254;10.430;2023-05-10T08:28:18;16.50;99.90
37896;DHT22;23733;53.254;10.430;2023-05-10T08:30:44;16.50;99.90
37896;DHT22;23733;53.254;10.430;2023-05-10T08:33:10;16.50;99.90
37896;DHT22;23733;53.254;10.430;2023-05-10T08:35:36;16.50;99.90
37896;DHT22;23733;53.254;10.430;2023-05-10T08:38:02;16.50;99.90
37896;DHT22;23733;53.254;10.430;2023-05-10T08:40:28;16.50;99.90
37896;DHT22;23733;53.254;10.430;2023-05-10T08:45:32;16.50;99.90
37896;DHT22;23733;53.254;10.430;2023-05-10T08:48:01;16.50;99.90
37896;DHT22;23733;53.254;10.430;2023-05-10T08:50:27;16.50;99.90
37896;DHT22;23733;53.254;10.430;2023-05-10T08:52:58;16.50;99.90
37896;DHT22;23733;53.254;10.430;2023-05-10T08:55:26;16.50;99.90
37896;DHT22;23733;53.254;10.430;2023-05-10T08:57:52;16.40;99.90
37896;DHT22;23733;53.254;10.430;2023-05-10T09:00:18;16.40;99.90
37896;DHT22;23733;53.254;10.430;2023-05-10T09:02:45;16.40;99.90
37896;DHT22;23733;53.254;10.430;2023-05-10T09:05:12;16.40;99.90
37896;DHT22;23733;53.254;10.430;2023-05-10T09:07:38;16.40;99.90
37896;DHT22;23733;53.254;10.430;2023-05-10T09:10:04;16.40;99.90
37896;DHT22;23733;53.254;10.430;2023-05-10T09:12:31;16.50;99.90
37896;DHT22;23733;53.254;10.430;2023-05-10T09:40:11;16.50;99.90
37896;DHT22;23733;53.254;10.430;2023-05-10T09:42:38;16.60;99.90
37896;DHT22;23733;53.254;10.430;2023-05-10T09:45:05;16.60;99.90
37896;DHT22;23733;53.254;10.430;2023-05-10T09:47:34;16.60;99.90
37896;DHT22;23733;53.254;10.430;2023-05-10T09:50:01;16.60;99.90
37896;DHT22;23733;53.254;10.430;2023-05-10T09:52:31;16.50;99.90
37896;DHT22;23733;53.254;10.430;2023-05-10T09:55:10;16.50;99.90
37896;DHT22;23733;53.254;10.430;2023-05-10T10:39:32;16.50;99.90
37896;DHT22;23733;53.254;10.430;2023-05-10T10:41:59;15.70;99.90
37896;DHT22;23733;53.254;10.430;2023-05-10T10:44:26;15.70;99.90
37896;DHT22;23733;53.254;10.430;2023-05-10T10:52:30;15.60;99.90
37896;DHT22;23733;53.254;10.430;2023-05-10T10:55:11;15.60;99.90
37896;DHT22;23733;53.254;10.430;2023-05-10T11:00:22;15.40;99.90
37896;DHT22;23733;53.254;10.430;2023-05-10T11:07:57;15.30;99.90
37896;DHT22;23733;53.254;10.430;2023-05-10T11:10:25;15.20;99.90
37896;DHT22;23733;53.254;10.430;2023-05-10T11:13:01;15.20;99.90
37896;DHT22;23733;53.254;10.430;2023-05-10T11:15:32;15.20;99.90
37896;DHT22;23733;53.254;10.430;2023-05-10T11:17:58;15.20;99.90
37896;DHT22;23733;53.254;10.430;2023-05-10T11:20:28;15.20;99.90
37896;DHT22;23733;53.254;10.430;2023-05-10T11:23:11;15.20;99.90
37896;DHT22;23733;53.254;10.430;2023-05-10T11:25:42;15.20;99.90
37896;DHT22;23733;53.254;10.430;2023-05-10T11:28:10;15.20;99.90
37896;DHT22;23733;53.254;10.430;2023-05-10T11:30:38;15.10;99.90
37896;DHT22;23733;53.254;10.430;2023-05-10T11:37:57;15.20;99.90
37896;DHT22;23733;53.254;10.430;2023-05-10T11:40:23;15.20;99.90
37896;DHT22;23733;53.254;10.430;2023-05-10T11:45:24;15.20;99.90
37896;DHT22;23733;53.254;10.430;2023-05-10T11:47:50;15.30;99.90
37896;DHT22;23733;53.254;10.430;2023-05-10T11:50:17;15.30;99.90
37896;DHT22;23733;53.254;10.430;2023-05-10T11:52:43;15.30;99.90
37896;DHT22;23733;53.254;10.430;2023-05-10T12:30:03;15.30;99.90
37896;DHT22;23733;53.254;10.430;2023-05-10T12:35:06;15.70;99.90
37896;DHT22;23733;53.254;10.430;2023-05-10T12:40:06;15.70;99.90
37896;DHT22;23733;53.254;10.430;2023-05-10T13:09:25;15.70;99.90
37896;DHT22;23733;53.254;10.430;2023-05-10T13:11:52;16.00;99.90
37896;DHT22;23733;53.254;10.430;2023-05-10T13:33:55;16.00;99.90
37896;DHT22;23733;53.254;10.430;2023-05-10T13:36:21;16.20;99.90
37896;DHT22;23733;53.254;10.430;2023-05-10T13:38:48;16.20;99.90
37896;DHT22;23733;53.254;10.430;2023-05-10T13:41:14;16.30;99.90
37896;DHT22;23733;53.254;10.430;2023-05-10T13:43:40;16.30;99.90
37896;DHT22;23733;53.254;10.430;2023-05-10T13:46:06;16.40;99.90
37896;DHT22;23733;53.254;10.430;2023-05-10T13:48:32;16.40;99.90
37896;DHT22;23733;53.254;10.430;2023-05-10T13:50:58;16.40;99.90
37896;DHT22;23733;53.254;10.430;2023-05-10T13:53:24;16.50;99.90
37896;DHT22;23733;53.254;10.430;2023-05-10T13:55:50;16.50;99.90
37896;DHT22;23733;53.254;10.430;2023-05-10T15:16:21;16.50;99.90
37896;DHT22;23733;53.254;10.430;2023-05-10T16:34:29;17.20;99.90
37896;DHT22;23733;53.254;10.430;2023-05-10T16:36:55;17.30;99.90
37896;DHT22;23733;53.254;10.430;2023-05-10T16:39:21;17.30;99.90
37896;DHT22;23733;53.254;10.430;2023-05-10T16:41:47;17.20;99.90
37896;DHT22;23733;53.254;10.430;2023-05-10T16:44:13;17.20;99.90
37896;DHT22;23733;53.254;10.430;2023-05-10T16:46:39;17.20;99.90
37896;DHT22;23733;53.254;10.430;2023-05-10T16:49:05;17.20;99.90
37896;DHT22;23733;53.254;10.430;2023-05-10T16:51:31;17.20;99.90
37896;DHT22;23733;53.254;10.430;2023-05-10T16:53:57;17.10;99.90
37896;DHT22;23733;53.254;10.430;2023-05-10T16:56:23;17.10;99.90
37896;DHT22;23733;53.254;10.430;2023-05-10T16:58:49;17.10;99.90
37896;DHT22;23733;53.254;10.430;2023-05-10T17:01:16;17.10;99.90
37896;DHT22;23733;53.254;10.430;2023-05-10T17:03:42;17.20;99.90
37896;DHT22;23733;53.254;10.430;2023-05-10T17:06:08;17.10;99.90
37896;DHT22;23733;53.254;10.430;2023-05-10T17:08:34;17.00;99.90
37896;DHT22;23733;53.254;10.430;2023-05-10T17:11:01;17.00;99.90
37896;DHT22;23733;53.254;10.430;2023-05-10T17:13:29;17.00;99.90
37896;DHT22;23733;53.254;10.430;2023-05-10T17:15:55;17.10;99.90
37896;DHT22;23733;53.254;10.430;2023-05-10T17:18:21;17.00;99.90
37896;DHT22;23733;53.254;10.430;2023-05-10T17:20:47;17.00;99.90
37896;DHT22;23733;53.254;10.430;2023-05-10T17:23:13;17.10;99.90
37896;DHT22;23733;53.254;10.430;2023-05-10T17:25:39;17.00;99.90
37896;DHT22;23733;53.254;10.430;2023-05-10T17:28:06;17.00;99.90
37896;DHT22;23733;53.254;10.430;2023-05-10T17:30:32;17.00;99.90
37896;DHT22;23733;53.254;10.430;2023-05-10T17:32:59;17.00;99.90
37896;DHT22;23733;53.254;10.430;2023-05-10T17:35:26;17.00;99.90
37896;DHT22;23733;53.254;10.430;2023-05-10T17:37:52;17.10;99.90
37896;DHT22;23733;53.254;10.430;2023-05-10T17:40:18;17.00;99.90
37896;DHT22;23733;53.254;10.430;2023-05-10T17:42:44;16.90;99.90
37896;DHT22;23733;53.254;10.430;2023-05-10T17:45:10;16.90;99.90
37896;DHT22;23733;53.254;10.430;2023-05-10T17:47:37;16.90;99.90
37896;DHT22;23733;53.254;10.430;2023-05-10T17:50:04;16.90;99.90
37896;DHT22;23733;53.254;10.430;2023-05-10T17:52:30;16.90;99.90
37896;DHT22;23733;53.254;10.430;2023-05-10T17:54:56;16.90;99.90
37896;DHT22;23733;53.254;10.430;2023-05-10T17:57:22;16.90;99.90
37896;DHT22;23733;53.254;10.430;2023-05-10T17:59:49;16.90;99.90
37896;DHT22;23733;53.254;10.430;2023-05-10T18:02:15;16.90;99.90
37896;DHT22;23733;53.254;10.430;2023-05-10T18:04:42;16.80;99.90
37896;DHT22;23733;53.254;10.430;2023-05-10T18:07:08;16.90;99.90
37896;DHT22;23733;53.254;10.430;2023-05-10T18:09:34;16.80;99.90
37896;DHT22;23733;53.254;10.430;2023-05-10T18:12:03;16.80;99.90
37896;DHT22;23733;53.254;10.430;2023-05-10T18:14:29;16.80;99.90
37896;DHT22;23733;53.254;10.430;2023-05-10T18:16:56;16.80;99.90
37896;DHT22;23733;53.254;10.430;2023-05-10T18:19:22;16.90;99.90
37896;DHT22;23733;53.254;10.430;2023-05-10T18:21:52;16.80;99.90
37896;DHT22;23733;53.254;10.430;2023-05-10T18:24:18;16.80;99.90
37896;DHT22;23733;53.254;10.430;2023-05-10T18:26:46;16.80;99.90
37896;DHT22;23733;53.254;10.430;2023-05-10T18:29:12;16.80;99.90
37896;DHT22;23733;53.254;10.430;2023-05-10T18:31:38;16.80;99.90
37896;DHT22;23733;53.254;10.430;2023-05-10T18:34:04;16.80;99.90
37896;DHT22;23733;53.254;10.430;2023-05-10T18:36:31;16.80;99.90
37896;DHT22;23733;53.254;10.430;2023-05-10T18:38:58;16.80;99.90
37896;DHT22;23733;53.254;10.430;2023-05-10T18:41:24;16.80;99.90
37896;DHT22;23733;53.254;10.430;2023-05-10T18:43:53;16.80;99.90
37896;DHT22;23733;53.254;10.430;2023-05-10T18:46:19;16.70;99.90
37896;DHT22;23733;53.254;10.430;2023-05-10T18:48:45;16.60;99.90
37896;DHT22;23733;53.254;10.430;2023-05-10T18:51:11;16.60;99.90
37896;DHT22;23733;53.254;10.430;2023-05-10T18:53:38;16.50;99.90
37896;DHT22;23733;53.254;10.430;2023-05-10T18:56:05;16.50;99.90
37896;DHT22;23733;53.254;10.430;2023-05-10T18:58:31;16.50;99.90
37896;DHT22;23733;53.254;10.430;2023-05-10T19:01:00;16.40;99.90
37896;DHT22;23733;53.254;10.430;2023-05-10T19:03:28;16.30;99.90
